EGAA - Belfast / Aldergrove Airport
Distance from station: E 5mi, 14km
Updated: 12/13/2017 2:20pm
Overcast
Overcast
 Wind from SSW
Wind: SSW 10 mph , 17 km/h
Temperature: 34°F , 1°C
Wind Chill: 26°F , -3°C
Dew Point: 34°F , 1°C
Humidity: 100%
Barometer: 29.12 inHg , 986 hPa
Clouds: Overcast
Visibility: 6 miles , 10 km
Cloud details: Mostly Cloudy 300 ft
Overcast 700 ft
2017/12/13 22:20 EGAA 132220Z 21009KT 9999 BKN003 OVC007 01/01 Q0986